Brainerd, Minnesota
Current Conditions -  °F | °C
As of 8:53 PM on Friday 21 Nov 2014 (Local Time) from KBRD Reporting Station
Clear Clear  
Wind Chill: -9°   Ceiling: Unl
Heat Index: -3°   Visibility: 8mi
Dew Point: -6°   Wind: 14mph
Humidity: 81%   Direction: 190°S
Pressure: 29.78"   Gusts: NA
Location:  46.35°N, 94.2°W
Report Text: KBRD 220253Z AUTO 19012KT 8SM CLR M03/M06 A2978 RMK AO2 SLP106 T10281056 56019
Loading
Personal Weather Stations






























Interactive Weather Map New forecast layout! Learn more

10-Day Weather Forecast

Advertisements
Track Severe Weather on mobile